Portada
METAR-TAF:

METAR-TAF

Aeroports :

Hanoi, Vietnam

latitud: 21-01N, longitud: 105-48E, altitud: 6 m

Observació

L'informe es va fer fa 33 minuts, a les 04:30 UTC
Vent 5 kt del Est/Nord-Est, variant entre Nord-Est i Est/Sud-Est
Temperatura 22°C
Humitat 69%
Pressió 1020 hPa
Visibilitat 10 km o més
sense núvols per sota de 1500 mi sense presència de cumulonimbus.

METAR: VVNB 210430Z 07005KT 040V110 CAVOK 22/16 Q1020 NOSIG

Hora: 12:03 (05:03 UTC)

Pronòstic

L'informe es va fer fa 6 hores i 3 minuts, a les 23:00 UTC
Pronòstic vàlid del 21 a les 00 UTC al 21 a les 24 UTC
Vent 5 kt del Nord-Est
Visibilitat 10 km o més
Núvols disperses a una alçada de 2500 ft
Evolucionant progressivament
l' 21 a les 20 UTC al 21 a les 21 UTC
Visibilitat: 4000 m
boirina

TAF: VVNB 202300Z 2100/2124 05005KT 9999 SCT025 BECMG 2120/2121 4000 BR

Observacions i pronòstics meteorològics de més de 4000 aeroports (METAR i TAF).

Les estacions disponibles són els punts grocs i vermells al mapa.

Posi el ratolí al punt desitjat per veure el nom de l'estació.

Feu clic per veure les observacions i els pronòstics meteorològics.

Per canviar el mapa: feu clic els botons verds amb una creu de color negre per apropar; al botó verd amb un guió per allunyar la imatge; o en les fletxes verdes per a mapes adjacents.


METAR-TAF: